createdAt,value
2018-07-20T00:00:07.815Z,92.73
2018-07-20T00:01:07.718Z,92.57
2018-07-20T00:02:07.825Z,92.30
2018-07-20T00:03:07.763Z,92.08
2018-07-20T00:04:07.935Z,92.03
2018-07-20T00:05:07.840Z,91.90
2018-07-20T00:06:07.917Z,92.22
2018-07-20T00:07:07.914Z,92.62
2018-07-20T00:08:07.880Z,92.78
2018-07-20T00:09:07.866Z,92.99
2018-07-20T00:10:07.862Z,93.13
2018-07-20T00:11:07.826Z,93.32
2018-07-20T00:12:07.880Z,93.26
2018-07-20T00:13:07.921Z,93.16
2018-07-20T00:14:07.777Z,93.21
2018-07-20T00:15:07.915Z,93.29
2018-07-20T00:16:07.903Z,93.24
2018-07-20T00:17:07.849Z,93.26
2018-07-20T00:18:07.901Z,93.29
2018-07-20T00:19:07.785Z,93.24
2018-07-20T00:20:07.830Z,92.97
2018-07-20T00:21:07.848Z,93.05
2018-07-20T00:22:07.796Z,93.02
2018-07-20T00:23:07.904Z,92.97
2018-07-20T00:24:07.852Z,92.99
2018-07-20T00:25:07.935Z,93.48
2018-07-20T00:26:07.874Z,93.70
2018-07-20T00:27:07.909Z,93.48
2018-07-20T00:28:07.879Z,93.51
2018-07-20T00:29:07.913Z,93.56
2018-07-20T00:30:07.950Z,93.37
2018-07-20T00:31:07.947Z,93.64
2018-07-20T00:32:07.986Z,93.75
2018-07-20T00:33:07.818Z,94.04
2018-07-20T00:34:07.916Z,93.99
2018-07-20T00:35:07.927Z,94.02
2018-07-20T00:36:07.920Z,94.15
2018-07-20T00:37:07.854Z,94.53
2018-07-20T00:38:07.854Z,94.88
2018-07-20T00:39:07.932Z,94.99
2018-07-20T00:40:07.860Z,94.96
2018-07-20T00:41:07.855Z,94.96
2018-07-20T00:42:07.923Z,95.01
2018-07-20T00:43:07.861Z,95.18
2018-07-20T00:44:07.828Z,95.26
2018-07-20T00:45:07.947Z,95.34
2018-07-20T00:46:07.851Z,95.34
2018-07-20T00:47:07.948Z,95.34
2018-07-20T00:48:07.879Z,95.31
2018-07-20T00:49:07.957Z,95.34
2018-07-20T00:50:07.893Z,95.34
2018-07-20T00:51:07.906Z,95.37
2018-07-20T00:52:07.951Z,95.42
2018-07-20T00:53:07.852Z,95.56
2018-07-20T00:54:07.864Z,95.58
2018-07-20T00:55:07.865Z,95.61
2018-07-20T00:56:07.868Z,95.75
2018-07-20T00:57:07.863Z,95.83
2018-07-20T00:58:07.934Z,95.80
2018-07-20T00:59:07.932Z,95.61
2018-07-20T01:00:07.866Z,95.53
2018-07-20T01:01:07.875Z,95.50
2018-07-20T01:02:07.873Z,95.66
2018-07-20T01:03:07.935Z,95.61
2018-07-20T01:04:07.977Z,95.64
2018-07-20T01:05:07.945Z,95.42
2018-07-20T01:06:07.882Z,95.31
2018-07-20T01:07:07.938Z,95.18
2018-07-20T01:08:07.983Z,95.10
2018-07-20T01:09:07.941Z,95.07
2018-07-20T01:10:07.865Z,95.07
2018-07-20T01:11:07.871Z,95.04
2018-07-20T01:12:07.921Z,94.99
2018-07-20T01:13:07.884Z,94.96
2018-07-20T01:14:07.976Z,95.07
2018-07-20T01:15:07.978Z,95.12
2018-07-20T01:16:07.985Z,95.12
2018-07-20T01:17:07.925Z,95.18
2018-07-20T01:18:07.871Z,95.23
2018-07-20T01:19:07.989Z,95.23
2018-07-20T01:20:07.926Z,95.23
2018-07-20T01:21:07.876Z,95.12
2018-07-20T01:22:07.871Z,95.12
2018-07-20T01:23:07.911Z,95.37
2018-07-20T01:24:07.948Z,95.58
2018-07-20T01:25:07.994Z,95.69
2018-07-20T01:26:07.915Z,95.88
2018-07-20T01:27:07.923Z,95.91
2018-07-20T01:28:07.860Z,95.98
2018-07-20T01:29:07.922Z,96.20
2018-07-20T01:30:07.920Z,96.31
2018-07-20T01:31:07.928Z,96.34
2018-07-20T01:32:07.864Z,96.53
2018-07-20T01:33:07.978Z,96.72
2018-07-20T01:34:07.994Z,96.77
2018-07-20T01:35:07.964Z,96.83
2018-07-20T01:36:07.981Z,96.85
2018-07-20T01:37:07.902Z,96.93
2018-07-20T01:38:07.879Z,96.85
2018-07-20T01:39:07.941Z,96.85
2018-07-20T01:40:07.934Z,96.88
2018-07-20T01:41:07.979Z,97.07
2018-07-20T01:42:08.021Z,97.23
2018-07-20T01:43:07.984Z,97.47
2018-07-20T01:44:08.004Z,97.47
2018-07-20T01:45:07.921Z,97.45
2018-07-20T01:46:07.871Z,97.50
2018-07-20T01:47:07.927Z,97.50
2018-07-20T01:48:08.009Z,97.61
2018-07-20T01:49:07.895Z,97.69
2018-07-20T01:50:07.969Z,97.88
2018-07-20T01:51:07.935Z,97.96
2018-07-20T01:52:07.969Z,97.88
2018-07-20T01:53:07.991Z,97.88
2018-07-20T01:54:07.900Z,97.85
2018-07-20T01:55:07.970Z,97.85
2018-07-20T01:56:07.906Z,97.85
2018-07-20T01:57:07.908Z,97.88
2018-07-20T01:58:08.033Z,98.02
2018-07-20T01:59:07.924Z,98.07
2018-07-20T02:00:08.015Z,98.12
2018-07-20T02:01:07.978Z,98.12
2018-07-20T02:02:07.978Z,98.12
2018-07-20T02:03:07.918Z,98.10
2018-07-20T02:04:07.918Z,98.04
2018-07-20T02:05:07.979Z,98.07
2018-07-20T02:06:07.916Z,98.07
2018-07-20T02:07:07.980Z,98.15
2018-07-20T02:08:07.983Z,98.26
2018-07-20T02:09:07.914Z,98.34
2018-07-20T02:10:07.980Z,98.40
2018-07-20T02:11:07.982Z,98.55
2018-07-20T02:12:07.918Z,98.85
2018-07-20T02:13:07.936Z,98.96
2018-07-20T02:14:08.018Z,99.04
2018-07-20T02:15:07.937Z,99.10
2018-07-20T02:16:07.978Z,99.13
2018-07-20T02:17:08.015Z,99.15
2018-07-20T02:18:08.029Z,99.18
2018-07-20T02:19:07.928Z,99.23
2018-07-20T02:20:07.955Z,99.43
2018-07-20T02:21:07.893Z,99.51
2018-07-20T02:22:07.963Z,99.56
2018-07-20T02:23:07.955Z,99.59
2018-07-20T02:24:08.017Z,99.62
2018-07-20T02:25:07.909Z,99.72
2018-07-20T02:26:07.917Z,99.78
2018-07-20T02:27:07.894Z,99.72
2018-07-20T02:28:07.970Z,99.75
2018-07-20T02:29:07.900Z,99.81
2018-07-20T02:30:08.046Z,99.83
2018-07-20T02:31:08.025Z,99.94
2018-07-20T02:32:07.956Z,99.92
2018-07-20T02:33:08.000Z,99.92
2018-07-20T02:34:07.974Z,99.94
2018-07-20T02:35:07.956Z,99.89
2018-07-20T02:36:08.001Z,99.94
2018-07-20T02:37:07.944Z,99.92
2018-07-20T02:38:07.995Z,99.99
2018-07-20T02:39:08.045Z,99.99
2018-07-20T02:40:08.039Z,99.99
2018-07-20T02:41:07.974Z,99.99
2018-07-20T02:42:08.078Z,99.99
2018-07-20T02:43:08.013Z,99.99
2018-07-20T02:44:08.006Z,99.99
2018-07-20T02:45:08.045Z,99.99
2018-07-20T02:46:08.009Z,99.99
2018-07-20T02:47:07.983Z,99.99
2018-07-20T02:48:08.021Z,99.86
2018-07-20T02:49:07.950Z,99.81
2018-07-20T02:50:07.991Z,99.94
2018-07-20T02:51:07.973Z,99.99
2018-07-20T02:52:08.015Z,99.99
2018-07-20T02:53:08.015Z,99.99
2018-07-20T02:54:08.050Z,99.99
2018-07-20T02:55:08.057Z,99.99
2018-07-20T02:56:08.013Z,99.99
2018-07-20T02:57:07.972Z,99.99
2018-07-20T02:58:07.918Z,99.99
2018-07-20T02:59:16.569Z,99.99
2018-07-20T03:00:07.984Z,99.99
2018-07-20T03:01:07.937Z,99.99
2018-07-20T03:02:07.989Z,99.99
2018-07-20T03:03:07.944Z,99.99
2018-07-20T03:04:07.996Z,99.99
2018-07-20T03:05:07.975Z,99.99
2018-07-20T03:06:08.056Z,99.99
2018-07-20T03:07:08.027Z,99.99
2018-07-20T03:08:07.965Z,99.99
2018-07-20T03:09:08.013Z,99.99
2018-07-20T03:10:07.933Z,99.99
2018-07-20T03:11:07.997Z,99.99
2018-07-20T03:12:07.931Z,99.99
2018-07-20T03:13:08.052Z,99.99
2018-07-20T03:14:07.959Z,99.99
2018-07-20T03:15:08.029Z,99.99
2018-07-20T03:16:07.961Z,99.99
2018-07-20T03:17:08.031Z,99.99
2018-07-20T03:18:07.960Z,99.99
2018-07-20T03:19:08.044Z,99.99
2018-07-20T03:20:08.033Z,99.99
2018-07-20T03:21:08.017Z,99.99
2018-07-20T03:22:07.971Z,99.99
2018-07-20T03:23:08.032Z,99.99
2018-07-20T03:24:08.011Z,99.99
2018-07-20T03:25:07.936Z,99.99
2018-07-20T03:26:08.002Z,99.99
2018-07-20T03:27:07.954Z,99.99
2018-07-20T03:28:08.041Z,99.99
2018-07-20T03:29:08.002Z,99.99
2018-07-20T03:30:08.008Z,99.99
2018-07-20T03:31:08.073Z,99.99
2018-07-20T03:32:07.943Z,99.99
2018-07-20T03:33:08.000Z,99.99
2018-07-20T03:34:08.042Z,99.99
2018-07-20T03:35:07.974Z,99.99
2018-07-20T03:36:08.062Z,99.99
2018-07-20T03:37:07.989Z,99.99
2018-07-20T03:38:08.041Z,99.99
2018-07-20T03:39:08.042Z,99.99
2018-07-20T03:40:08.046Z,99.99
2018-07-20T03:41:07.976Z,99.99
2018-07-20T03:42:08.043Z,99.99
2018-07-20T03:43:07.981Z,99.99
2018-07-20T03:44:08.063Z,99.99
2018-07-20T03:45:08.077Z,99.99
2018-07-20T03:46:08.072Z,99.99
2018-07-20T03:47:08.042Z,99.99
2018-07-20T03:48:07.951Z,99.99
2018-07-20T03:49:08.150Z,99.99
2018-07-20T03:50:08.015Z,99.99
2018-07-20T03:51:08.047Z,99.99
2018-07-20T03:52:08.051Z,99.99
2018-07-20T03:53:08.050Z,99.99
2018-07-20T03:54:07.975Z,99.99
2018-07-20T03:55:08.053Z,99.99
2018-07-20T03:56:07.949Z,99.99
2018-07-20T03:57:08.085Z,99.99
2018-07-20T03:58:08.092Z,99.99
2018-07-20T03:59:08.019Z,99.99
2018-07-20T04:00:08.076Z,99.99
2018-07-20T04:01:08.071Z,99.99
2018-07-20T04:02:08.034Z,99.99
2018-07-20T04:03:08.101Z,99.99
2018-07-20T04:04:08.066Z,99.99
2018-07-20T04:05:08.081Z,99.99
2018-07-20T04:06:08.060Z,99.99
2018-07-20T04:07:08.074Z,99.99
2018-07-20T04:08:07.969Z,99.99
2018-07-20T04:09:08.042Z,99.99
2018-07-20T04:10:08.035Z,99.99
2018-07-20T04:11:08.006Z,99.99
2018-07-20T04:12:08.084Z,99.99
2018-07-20T04:13:07.970Z,99.99
2018-07-20T04:14:08.024Z,99.99
2018-07-20T04:15:08.049Z,99.99
2018-07-20T04:16:08.054Z,99.99
2018-07-20T04:17:08.004Z,99.99
2018-07-20T04:18:07.974Z,99.99
2018-07-20T04:19:07.943Z,99.99
2018-07-20T04:20:08.056Z,99.99
2018-07-20T04:21:08.062Z,99.99
2018-07-20T04:22:08.069Z,99.99
2018-07-20T04:23:07.940Z,99.99
2018-07-20T04:24:08.008Z,99.99
2018-07-20T04:25:08.071Z,99.99
2018-07-20T04:26:08.117Z,99.99
2018-07-20T04:27:08.103Z,99.99
2018-07-20T04:28:08.096Z,99.99
2018-07-20T04:29:08.076Z,99.99
2018-07-20T04:30:08.055Z,99.99
2018-07-20T04:31:07.972Z,99.99
2018-07-20T04:32:08.078Z,99.99
2018-07-20T04:33:08.048Z,99.99
2018-07-20T04:34:08.042Z,99.99
2018-07-20T04:35:08.080Z,99.99
2018-07-20T04:36:08.014Z,99.99
2018-07-20T04:37:08.014Z,99.99
2018-07-20T04:38:08.084Z,99.99
2018-07-20T04:39:08.021Z,99.99
2018-07-20T04:40:08.015Z,99.99
2018-07-20T04:41:08.082Z,99.99
2018-07-20T04:42:08.081Z,99.99
2018-07-20T04:43:08.022Z,99.99
2018-07-20T04:44:08.017Z,99.99
2018-07-20T04:45:08.046Z,99.99
2018-07-20T04:46:08.083Z,99.99
2018-07-20T04:47:08.086Z,99.99
2018-07-20T04:48:08.047Z,99.99
2018-07-20T04:49:08.070Z,99.99
2018-07-20T04:50:08.052Z,99.99
2018-07-20T04:51:08.109Z,99.99
2018-07-20T04:52:08.153Z,99.99
2018-07-20T04:53:07.994Z,99.99
2018-07-20T04:54:08.117Z,99.99
2018-07-20T04:55:07.988Z,99.99
2018-07-20T04:56:08.000Z,99.81
2018-07-20T04:57:07.992Z,99.56
2018-07-20T04:58:08.017Z,99.26
2018-07-20T04:59:07.956Z,99.04
2018-07-20T05:00:08.040Z,98.88
2018-07-20T05:01:08.046Z,98.66
2018-07-20T05:02:07.951Z,98.45
2018-07-20T05:03:08.047Z,98.26
2018-07-20T05:04:08.050Z,98.04
2018-07-20T05:05:08.060Z,97.85
2018-07-20T05:06:08.037Z,97.64
2018-07-20T05:07:08.104Z,97.42
2018-07-20T05:08:08.058Z,97.21
2018-07-20T05:09:08.099Z,97.12
2018-07-20T05:10:08.036Z,96.96
2018-07-20T05:11:08.103Z,96.77
2018-07-20T05:12:08.040Z,96.50
2018-07-20T05:13:08.041Z,96.17
2018-07-20T05:14:08.041Z,95.96
2018-07-20T05:15:08.042Z,95.72
2018-07-20T05:16:08.105Z,95.34
2018-07-20T05:17:08.106Z,94.75
2018-07-20T05:18:08.107Z,94.37
2018-07-20T05:19:08.110Z,94.10
2018-07-20T05:20:08.040Z,93.89
2018-07-20T05:21:08.108Z,93.70
2018-07-20T05:22:08.049Z,93.54
2018-07-20T05:23:08.045Z,93.24
2018-07-20T05:24:08.169Z,92.99
2018-07-20T05:25:08.129Z,92.86
2018-07-20T05:26:08.038Z,92.84
2018-07-20T05:27:08.075Z,92.78
2018-07-20T05:28:08.027Z,92.62
2018-07-20T05:29:08.056Z,92.16
2018-07-20T05:30:08.090Z,91.92
2018-07-20T05:31:08.077Z,91.82
2018-07-20T05:32:08.143Z,91.79
2018-07-20T05:33:08.091Z,91.57
2018-07-20T05:34:08.097Z,91.44
2018-07-20T05:35:08.006Z,91.25
2018-07-20T05:36:08.044Z,90.98
2018-07-20T05:37:08.116Z,90.74
2018-07-20T05:38:08.091Z,90.55
2018-07-20T05:39:08.113Z,90.47
2018-07-20T05:40:07.995Z,89.94
2018-07-20T05:41:08.112Z,89.27
2018-07-20T05:42:08.115Z,88.36
2018-07-20T05:43:07.993Z,88.17
2018-07-20T05:44:08.057Z,88.04
2018-07-20T05:45:08.140Z,88.09
2018-07-20T05:46:08.125Z,87.77
2018-07-20T05:47:08.061Z,86.89
2018-07-20T05:48:08.128Z,86.54
2018-07-20T05:49:08.063Z,85.83
2018-07-20T05:50:08.132Z,85.43
2018-07-20T05:51:08.063Z,84.89
2018-07-20T05:52:08.130Z,84.39
2018-07-20T05:53:08.065Z,84.42
2018-07-20T05:54:08.067Z,83.36
2018-07-20T05:55:08.172Z,82.93
2018-07-20T05:56:08.131Z,81.82
2018-07-20T05:57:08.067Z,81.74
2018-07-20T05:58:08.136Z,81.66
2018-07-20T05:59:08.134Z,81.48
2018-07-20T06:00:08.136Z,80.97
2018-07-20T06:01:08.070Z,80.31
2018-07-20T06:02:08.140Z,79.86
2018-07-20T06:03:08.071Z,78.47
2018-07-20T06:04:08.219Z,77.83
2018-07-20T06:05:08.136Z,77.07
2018-07-20T06:06:08.072Z,76.60
2018-07-20T06:07:08.111Z,76.28
2018-07-20T06:08:08.126Z,75.41
2018-07-20T06:09:08.112Z,75.18
2018-07-20T06:10:08.120Z,74.63
2018-07-20T06:11:08.117Z,74.05
2018-07-20T06:12:08.105Z,73.40
2018-07-20T06:13:08.118Z,72.80
2018-07-20T06:14:08.208Z,72.25
2018-07-20T06:15:08.099Z,72.30
2018-07-20T06:16:08.130Z,72.20
2018-07-20T06:17:08.132Z,72.20
2018-07-20T06:18:08.131Z,72.14
2018-07-20T06:19:08.092Z,73.06
2018-07-20T06:20:08.072Z,72.38
2018-07-20T06:21:08.048Z,72.69
2018-07-20T06:22:08.103Z,73.37
2018-07-20T06:23:08.077Z,74.29
2018-07-20T06:24:08.092Z,74.32
2018-07-20T06:25:08.115Z,73.85
2018-07-20T06:26:08.177Z,74.34
2018-07-20T06:27:08.113Z,73.58
2018-07-20T06:28:08.092Z,75.05
2018-07-20T06:29:08.117Z,74.47
2018-07-20T06:30:08.117Z,73.89
2018-07-20T06:31:08.279Z,73.82
2018-07-20T06:32:08.140Z,73.45
2018-07-20T06:33:08.135Z,71.96
2018-07-20T06:34:08.062Z,71.73
2018-07-20T06:35:08.069Z,72.77
2018-07-20T06:36:08.159Z,71.86
2018-07-20T06:37:08.159Z,71.81
2018-07-20T06:38:08.122Z,71.94
2018-07-20T06:39:08.177Z,71.75
2018-07-20T06:40:08.124Z,72.51
2018-07-20T06:41:08.130Z,71.94
2018-07-20T06:42:08.147Z,72.07
2018-07-20T06:43:08.300Z,71.83
2018-07-20T06:44:08.201Z,72.80
2018-07-20T06:45:08.200Z,71.39
2018-07-20T06:46:08.071Z,72.80
2018-07-20T06:47:08.263Z,71.89
2018-07-20T06:48:08.151Z,72.14
2018-07-20T06:49:08.175Z,71.86
2018-07-20T06:50:08.111Z,71.15
2018-07-20T06:51:08.194Z,70.53
2018-07-20T06:52:08.204Z,69.93
2018-07-20T06:53:08.131Z,69.46
2018-07-20T06:54:08.207Z,69.70
2018-07-20T06:55:08.154Z,68.79
2018-07-20T06:56:08.082Z,68.16
2018-07-20T06:57:08.133Z,67.20
2018-07-20T06:58:08.205Z,68.01
2018-07-20T06:59:08.197Z,66.95
2018-07-20T07:00:08.131Z,64.85
2018-07-20T07:01:08.087Z,65.62
2018-07-20T07:02:08.138Z,66.06
2018-07-20T07:03:08.100Z,65.60
2018-07-20T07:04:08.140Z,64.23
2018-07-20T07:05:08.097Z,65.18
2018-07-20T07:06:08.140Z,64.93
2018-07-20T07:07:08.184Z,66.22
2018-07-20T07:08:08.209Z,65.03
2018-07-20T07:09:08.208Z,65.34
2018-07-20T07:10:08.144Z,64.88
2018-07-20T07:11:08.218Z,67.02
2018-07-20T07:12:08.187Z,65.81
2018-07-20T07:13:08.208Z,64.29
2018-07-20T07:14:08.224Z,63.05
2018-07-20T07:15:08.179Z,62.25
2018-07-20T07:16:08.207Z,63.46
2018-07-20T07:17:08.217Z,61.63
2018-07-20T07:18:08.205Z,61.99
2018-07-20T07:19:08.123Z,62.66
2018-07-20T07:20:08.215Z,63.05
2018-07-20T07:21:08.095Z,60.91
2018-07-20T07:22:08.214Z,60.58
2018-07-20T07:23:08.169Z,60.17
2018-07-20T07:24:08.169Z,60.99
2018-07-20T07:25:08.215Z,59.97
2018-07-20T07:26:08.219Z,57.59
2018-07-20T07:27:08.169Z,57.48
2018-07-20T07:28:08.165Z,58.46
2018-07-20T07:29:08.207Z,58.48
2018-07-20T07:30:08.148Z,58.02
2018-07-20T07:31:08.198Z,57.71
2018-07-20T07:32:08.123Z,57.64
2018-07-20T07:33:08.178Z,57.59
2018-07-20T07:34:08.195Z,56.77
2018-07-20T07:35:08.077Z,57.05
2018-07-20T07:36:08.194Z,56.00
2018-07-20T07:37:08.073Z,55.52
2018-07-20T07:38:08.196Z,54.10
2018-07-20T07:39:08.154Z,56.21
2018-07-20T07:40:08.156Z,55.65
2018-07-20T07:41:08.138Z,53.79
2018-07-20T07:42:08.107Z,55.72
2018-07-20T07:43:08.156Z,53.26
2018-07-20T07:44:08.107Z,52.35
2018-07-20T07:45:08.242Z,52.07
2018-07-20T07:46:08.214Z,53.21
2018-07-20T07:47:08.244Z,52.25
2018-07-20T07:48:08.184Z,53.03
2018-07-20T07:49:08.208Z,51.99
2018-07-20T07:50:08.212Z,53.97
2018-07-20T07:51:08.120Z,53.97
2018-07-20T07:52:08.227Z,50.38
2018-07-20T07:53:08.235Z,50.45
2018-07-20T07:54:08.209Z,52.70
2018-07-20T07:55:08.215Z,50.75
2018-07-20T07:56:08.147Z,51.11
2018-07-20T07:57:08.150Z,53.14
2018-07-20T07:58:08.214Z,52.90
2018-07-20T07:59:08.172Z,53.34
2018-07-20T08:00:08.215Z,51.74
2018-07-20T08:01:08.153Z,51.08
2018-07-20T08:02:08.152Z,48.36
2018-07-20T08:03:08.168Z,49.92
2018-07-20T08:04:08.219Z,48.61
2018-07-20T08:05:08.241Z,47.96
2018-07-20T08:06:08.239Z,47.98
2018-07-20T08:07:08.244Z,52.10
2018-07-20T08:08:08.268Z,48.36
2018-07-20T08:09:08.134Z,49.04
2018-07-20T08:10:08.428Z,49.27
2018-07-20T08:11:08.125Z,49.85
2018-07-20T08:12:08.221Z,47.83
2018-07-20T08:13:08.260Z,46.78
2018-07-20T08:14:08.238Z,46.83
2018-07-20T08:15:08.204Z,47.86
2018-07-20T08:16:08.270Z,47.83
2018-07-20T08:17:08.254Z,48.34
2018-07-20T08:18:08.215Z,49.97
2018-07-20T08:19:08.266Z,46.75
2018-07-20T08:20:08.154Z,47.86
2018-07-20T08:21:08.130Z,48.59
2018-07-20T08:22:08.237Z,45.70
2018-07-20T08:23:08.210Z,44.22
2018-07-20T08:24:08.255Z,45.77
2018-07-20T08:25:08.174Z,44.90
2018-07-20T08:26:08.133Z,44.93
2018-07-20T08:27:08.196Z,44.37
2018-07-20T08:28:08.154Z,44.68
2018-07-20T08:29:08.236Z,45.90
2018-07-20T08:30:08.140Z,44.22
2018-07-20T08:31:08.274Z,44.87
2018-07-20T08:32:08.217Z,44.00
2018-07-20T08:33:08.266Z,44.68
2018-07-20T08:34:08.236Z,44.32
2018-07-20T08:35:08.241Z,45.60
2018-07-20T08:36:08.242Z,46.02
2018-07-20T08:37:08.219Z,45.48
2018-07-20T08:38:08.216Z,44.07
2018-07-20T08:39:08.222Z,44.37
2018-07-20T08:40:08.142Z,46.02
2018-07-20T08:41:08.255Z,46.18
2018-07-20T08:42:08.265Z,44.60
2018-07-20T08:43:08.271Z,44.93
2018-07-20T08:44:08.167Z,45.55
2018-07-20T08:45:08.278Z,47.45
2018-07-20T08:46:08.244Z,45.25
2018-07-20T08:47:08.230Z,45.20
2018-07-20T08:48:08.229Z,45.05
2018-07-20T08:49:08.249Z,45.32
2018-07-20T08:50:08.281Z,44.68
2018-07-20T08:51:08.213Z,45.82
2018-07-20T08:52:08.152Z,44.93
2018-07-20T08:53:08.281Z,45.18
2018-07-20T08:54:08.340Z,48.39
2018-07-20T08:55:08.255Z,45.05
2018-07-20T08:56:08.231Z,45.93
2018-07-20T08:57:08.216Z,43.92
2018-07-20T08:58:08.286Z,44.87
2018-07-20T08:59:08.392Z,45.12
2018-07-20T09:00:08.228Z,44.50
2018-07-20T09:01:08.233Z,42.75
2018-07-20T09:02:08.166Z,42.58
2018-07-20T09:03:08.260Z,44.55
2018-07-20T09:04:08.289Z,42.48
2018-07-20T09:05:08.261Z,42.95
2018-07-20T09:06:08.194Z,43.67
2018-07-20T09:07:08.227Z,42.50
2018-07-20T09:08:08.310Z,41.13
2018-07-20T09:09:08.234Z,41.45
2018-07-20T09:10:08.287Z,42.62
2018-07-20T09:11:08.309Z,41.38
2018-07-20T09:12:08.286Z,39.91
2018-07-20T09:13:08.248Z,40.51
2018-07-20T09:14:08.224Z,41.06
2018-07-20T09:15:08.296Z,42.45
2018-07-20T09:16:08.224Z,45.32
2018-07-20T09:17:08.271Z,41.65
2018-07-20T09:18:08.174Z,43.35
2018-07-20T09:19:08.270Z,40.56
2018-07-20T09:20:08.240Z,40.36
2018-07-20T09:21:08.308Z,41.01
2018-07-20T09:22:08.273Z,40.76
2018-07-20T09:23:08.246Z,41.75
2018-07-20T09:24:08.296Z,39.94
2018-07-20T09:25:08.179Z,38.45
2018-07-20T09:26:08.237Z,40.19
2018-07-20T09:27:08.245Z,38.05
2018-07-20T09:28:08.248Z,39.02
2018-07-20T09:29:08.296Z,42.20
2018-07-20T09:30:08.240Z,45.62
2018-07-20T09:31:08.320Z,40.34
2018-07-20T09:32:08.277Z,41.53
2018-07-20T09:33:08.318Z,40.11
2018-07-20T09:34:08.368Z,39.02
2018-07-20T09:35:08.283Z,38.60
2018-07-20T09:36:08.326Z,39.66
2018-07-20T09:37:08.313Z,39.40
2018-07-20T09:38:08.306Z,39.64
2018-07-20T09:39:08.288Z,38.40
2018-07-20T09:40:08.292Z,39.32
2018-07-20T09:41:08.322Z,38.82
2018-07-20T09:42:08.244Z,38.52
2018-07-20T09:43:08.312Z,38.08
2018-07-20T09:44:08.286Z,38.82
2018-07-20T09:45:08.290Z,37.83
2018-07-20T09:46:08.196Z,38.21
2018-07-20T09:47:08.221Z,39.34
2018-07-20T09:48:08.275Z,39.94
2018-07-20T09:49:08.295Z,39.82
2018-07-20T09:50:08.159Z,38.55
2018-07-20T09:51:08.244Z,36.13
2018-07-20T09:52:08.248Z,36.59
2018-07-20T09:53:08.250Z,37.51
2018-07-20T09:54:08.283Z,35.54
2018-07-20T09:55:08.234Z,34.40
2018-07-20T09:56:08.286Z,33.47
2018-07-20T09:57:08.220Z,32.46
2018-07-20T09:58:08.218Z,32.68
2018-07-20T09:59:08.248Z,34.55
2018-07-20T10:00:08.291Z,33.57
2018-07-20T10:01:08.205Z,36.62
2018-07-20T10:02:08.285Z,35.39
2018-07-20T10:03:08.169Z,34.85
2018-07-20T10:04:08.255Z,32.68
2018-07-20T10:05:08.292Z,33.94
2018-07-20T10:06:08.305Z,34.09
2018-07-20T10:07:08.240Z,34.30
2018-07-20T10:08:08.371Z,31.31
2018-07-20T10:09:08.315Z,32.32
2018-07-20T10:10:08.242Z,31.53
2018-07-20T10:11:08.307Z,33.87
2018-07-20T10:12:08.345Z,32.14
2018-07-20T10:13:08.244Z,31.78
2018-07-20T10:14:08.244Z,30.46
2018-07-20T10:15:08.403Z,32.14
2018-07-20T10:16:08.313Z,30.26
2018-07-20T10:17:08.242Z,31.53
2018-07-20T10:18:08.302Z,34.40
2018-07-20T10:19:08.351Z,29.40
2018-07-20T10:20:08.305Z,30.70
2018-07-20T10:21:08.247Z,32.39
2018-07-20T10:22:08.302Z,31.44
2018-07-20T10:23:08.261Z,27.12
2018-07-20T10:24:08.252Z,26.90
2018-07-20T10:25:08.234Z,27.96
2018-07-20T10:26:08.251Z,27.62
2018-07-20T10:28:08.254Z,29.22
2018-07-20T10:29:08.257Z,29.40
2018-07-20T10:30:08.317Z,28.29
2018-07-20T10:31:08.253Z,29.00
2018-07-20T10:32:08.321Z,31.88
2018-07-20T10:33:08.255Z,31.63
2018-07-20T10:34:08.254Z,28.94
2018-07-20T10:35:08.289Z,29.39
2018-07-20T10:36:08.344Z,29.75
2018-07-20T10:37:08.325Z,32.74
2018-07-20T10:38:08.353Z,31.73
2018-07-20T10:39:08.227Z,32.24
2018-07-20T10:40:08.230Z,30.75
2018-07-20T10:41:08.296Z,31.31
2018-07-20T10:42:08.349Z,30.48
2018-07-20T10:43:08.423Z,31.07
2018-07-20T10:44:08.325Z,31.53
2018-07-20T10:45:08.296Z,32.51
2018-07-20T10:46:08.268Z,32.63
2018-07-20T10:47:08.333Z,30.87
2018-07-20T10:48:08.337Z,30.22
2018-07-20T10:49:08.332Z,31.14
2018-07-20T10:50:08.460Z,29.34
2018-07-20T10:51:08.336Z,29.28
2018-07-20T10:52:08.436Z,30.61
2018-07-20T10:53:08.296Z,29.34
2018-07-20T10:54:08.303Z,29.45
2018-07-20T10:55:08.353Z,28.66
2018-07-20T10:56:08.303Z,28.88
2018-07-20T10:57:08.302Z,30.56
2018-07-20T10:58:08.367Z,31.56
2018-07-20T10:59:08.359Z,29.95
2018-07-20T11:00:08.304Z,28.86
2018-07-20T11:01:08.246Z,29.28
2018-07-20T11:02:08.314Z,29.32
2018-07-20T11:03:08.371Z,29.63
2018-07-20T11:04:08.378Z,31.39
2018-07-20T11:05:08.345Z,27.99
2018-07-20T11:06:08.277Z,29.24
2018-07-20T11:07:08.346Z,28.80
2018-07-20T11:08:08.346Z,29.12
2018-07-20T11:09:08.344Z,28.52
2018-07-20T11:10:08.281Z,27.34
2018-07-20T11:11:08.345Z,27.76
2018-07-20T11:12:08.283Z,28.29
2018-07-20T11:13:08.284Z,29.69
2018-07-20T11:14:08.282Z,29.53
2018-07-20T11:15:08.352Z,30.44
2018-07-20T11:16:08.349Z,29.34
2018-07-20T11:17:08.308Z,30.53
2018-07-20T11:18:08.305Z,30.07
2018-07-20T11:19:08.373Z,32.10
2018-07-20T11:20:08.391Z,29.60
2018-07-20T11:21:08.376Z,29.51
2018-07-20T11:22:08.322Z,29.02
2018-07-20T11:23:08.382Z,32.74
2018-07-20T11:24:08.370Z,28.21
2018-07-20T11:25:08.389Z,29.24
2018-07-20T11:26:08.349Z,29.46
2018-07-20T11:27:08.226Z,29.46
2018-07-20T11:28:08.326Z,31.44
2018-07-20T11:29:08.353Z,28.10
2018-07-20T11:30:08.342Z,30.97
2018-07-20T11:31:08.354Z,26.98
2018-07-20T11:32:08.263Z,28.40
2018-07-20T11:33:08.281Z,32.00
2018-07-20T11:34:08.350Z,28.43
2018-07-20T11:35:08.297Z,27.58
2018-07-20T11:36:08.280Z,27.24
2018-07-20T11:37:08.331Z,27.02
2018-07-20T11:38:08.402Z,26.64
2018-07-20T11:39:08.334Z,28.02
2018-07-20T11:40:08.384Z,27.47
2018-07-20T11:41:08.406Z,30.51
2018-07-20T11:42:08.343Z,27.83
2018-07-20T11:43:08.269Z,27.80
2018-07-20T11:44:08.365Z,28.62
2018-07-20T11:45:08.279Z,29.87
2018-07-20T11:46:08.351Z,30.17
2018-07-20T11:47:08.391Z,31.02
2018-07-20T11:48:08.394Z,30.24
2018-07-20T11:49:08.403Z,30.22
2018-07-20T11:50:08.401Z,30.36
2018-07-20T11:51:08.405Z,29.95
2018-07-20T11:52:08.281Z,31.44
2018-07-20T11:53:08.334Z,31.09
2018-07-20T11:54:08.348Z,30.56
2018-07-20T11:55:08.379Z,31.05
2018-07-20T11:56:08.439Z,30.56
2018-07-20T11:57:08.282Z,30.61
2018-07-20T11:58:08.407Z,31.46
2018-07-20T11:59:08.279Z,32.27
2018-07-20T12:00:08.411Z,31.19
2018-07-20T12:01:08.424Z,32.00
2018-07-20T12:02:08.401Z,31.53
2018-07-20T12:03:08.395Z,32.51
2018-07-20T12:04:08.341Z,33.69
2018-07-20T12:05:08.418Z,31.85
2018-07-20T12:06:08.366Z,35.07
2018-07-20T12:07:08.365Z,30.48
2018-07-20T12:08:08.246Z,30.26
2018-07-20T12:09:08.309Z,30.26
2018-07-20T12:10:08.310Z,30.61
2018-07-20T12:11:08.277Z,32.10
2018-07-20T12:12:08.280Z,29.00
2018-07-20T12:13:08.280Z,29.22
2018-07-20T12:14:08.372Z,31.61
2018-07-20T12:15:08.337Z,31.14
2018-07-20T12:16:08.363Z,31.29
2018-07-20T12:17:08.369Z,31.46
2018-07-20T12:18:08.407Z,30.22
2018-07-20T12:19:08.314Z,31.19
2018-07-20T12:20:08.299Z,31.05
2018-07-20T12:21:08.412Z,31.39
2018-07-20T12:22:08.364Z,31.29
2018-07-20T12:23:08.304Z,34.26
2018-07-20T12:24:08.398Z,33.96
2018-07-20T12:25:08.423Z,30.36
2018-07-20T12:26:08.398Z,29.32
2018-07-20T12:27:08.335Z,30.83
2018-07-20T12:28:08.436Z,32.12
2018-07-20T12:29:08.333Z,31.17
2018-07-20T12:30:08.435Z,29.69
2018-07-20T12:31:08.333Z,30.68
2018-07-20T12:32:08.423Z,29.59
2018-07-20T12:33:08.402Z,33.59
2018-07-20T12:34:08.394Z,32.86
2018-07-20T12:35:08.412Z,30.00
2018-07-20T12:36:08.339Z,29.43
2018-07-20T12:37:08.404Z,31.00
2018-07-20T12:38:08.338Z,30.61
2018-07-20T12:39:08.406Z,37.58
2018-07-20T12:40:08.341Z,30.53
2018-07-20T12:41:08.427Z,29.43
2018-07-20T12:42:08.343Z,29.28
2018-07-20T12:43:08.412Z,30.68
2018-07-20T12:44:08.410Z,29.20
2018-07-20T12:45:08.346Z,31.53
2018-07-20T12:46:08.393Z,28.86
2018-07-20T12:47:08.370Z,31.68
2018-07-20T12:48:08.309Z,28.74
2018-07-20T12:49:08.451Z,27.76
2018-07-20T12:50:08.454Z,29.69
2018-07-20T12:51:08.441Z,28.98
2018-07-20T12:52:08.444Z,31.19
2018-07-20T12:53:08.435Z,30.73